Time;durP1;ratioP1;P1;durP2;ratioP2;P2;SDS_P1;SDS_P2;PMS_P1;PMS_P2;Temp;Humidity;BMP_temperature;BMP_pressure;BME280_temperature;BME280_humidity;BME280_pressure;Samples;Min_cycle;Max_cycle;Signal;HPM_P1;HPM_P2
2024/01/04 00:01:58;;;;;;;7.15;3.53;;;;;;;-20.96;81.03;98813.03;4983684;28;20057;-73
2024/01/04 00:04:24;;;;;;;6.23;4.10;;;;;;;-20.98;81.06;98807.16;5022336;28;20057;-74
2024/01/04 00:06:50;;;;;;;6.70;4.43;;;;;;;-21.05;81.02;98806.28;5001618;28;20198;-74
2024/01/04 00:09:16;;;;;;;5.53;3.28;;;;;;;-21.03;80.85;98821.41;5038996;28;20048;-73
2024/01/04 00:11:45;;;;;;;6.85;4.03;;;;;;;-20.99;81.30;98816.41;5055867;28;20189;-73
2024/01/04 00:14:12;;;;;;;6.00;3.47;;;;;;;-21.12;80.75;98806.22;5039010;28;20040;-72
2024/01/04 00:16:39;;;;;;;10.18;3.83;;;;;;;-21.12;80.71;98811.25;5013492;28;20059;-72
2024/01/04 00:19:08;;;;;;;2.97;2.60;;;;;;;-21.17;80.33;98812.91;4967311;28;20059;-73
2024/01/04 00:21:36;;;;;;;6.07;3.72;;;;;;;-21.23;80.30;98806.13;4990892;28;20084;-73
2024/01/04 00:24:02;;;;;;;6.40;3.83;;;;;;;-21.27;79.94;98811.13;5026971;28;20054;-73
2024/01/04 00:26:29;;;;;;;6.65;3.90;;;;;;;-21.25;80.08;98811.97;5014986;28;20532;-73
2024/01/04 00:28:57;;;;;;;4.25;3.10;;;;;;;-21.25;80.43;98802.75;4974591;28;20046;-73
2024/01/04 00:31:23;;;;;;;7.40;3.05;;;;;;;-21.24;80.43;98804.44;4980505;28;20046;-73
2024/01/04 00:33:50;;;;;;;5.67;3.23;;;;;;;-21.16;80.72;98809.53;4987413;28;20041;-74
2024/01/04 00:36:15;;;;;;;8.05;3.15;;;;;;;-21.18;80.34;98811.22;4988239;28;20067;-75
2024/01/04 00:38:41;;;;;;;7.47;3.77;;;;;;;-21.15;80.53;98811.25;5004094;28;20131;-74
2024/01/04 00:41:08;;;;;;;5.60;3.50;;;;;;;-21.14;79.93;98807.88;5036973;28;20059;-75
2024/01/04 00:43:35;;;;;;;7.10;3.05;;;;;;;-21.13;80.01;98810.41;5020804;28;20092;-74
2024/01/04 00:46:02;;;;;;;5.97;3.88;;;;;;;-21.10;79.88;98796.97;5016466;28;20419;-74
2024/01/04 00:48:28;;;;;;;5.78;3.92;;;;;;;-21.13;79.54;98799.47;5018532;28;20045;-74
2024/01/04 00:50:54;;;;;;;7.93;4.27;;;;;;;-21.12;79.64;98798.66;5003491;28;20052;-74
2024/01/04 00:53:20;;;;;;;6.00;3.45;;;;;;;-21.08;79.29;98802.88;5025384;28;20071;-75
2024/01/04 00:55:47;;;;;;;3.58;2.85;;;;;;;-21.11;79.13;98801.19;5036827;28;20147;-73
2024/01/04 00:58:13;;;;;;;5.82;3.45;;;;;;;-21.12;78.54;98803.69;5039351;28;20491;-74
2024/01/04 01:00:41;;;;;;;5.97;3.33;;;;;;;-21.11;78.73;98807.91;5037056;28;20470;-75
2024/01/04 01:03:06;;;;;;;5.63;3.43;;;;;;;-21.10;78.50;98802.00;5036965;28;20056;-74
2024/01/04 01:05:34;;;;;;;4.33;3.20;;;;;;;-21.09;78.32;98796.16;5021018;28;20040;-73
2024/01/04 01:08:01;;;;;;;12.68;3.78;;;;;;;-21.00;78.86;98801.25;5033039;28;20053;-74
2024/01/04 01:10:29;;;;;;;8.27;3.60;;;;;;;-21.03;78.90;98798.72;4977532;28;20045;-74
2024/01/04 01:12:58;;;;;;;6.32;3.47;;;;;;;-21.01;79.00;98792.84;4963566;28;20367;-74
2024/01/04 01:15:24;;;;;;;5.10;2.90;;;;;;;-20.97;78.90;98791.19;4977134;28;20061;-73
2024/01/04 01:17:51;;;;;;;5.38;3.38;;;;;;;-20.95;79.05;98789.53;4990404;28;20073;-73
2024/01/04 01:20:16;;;;;;;3.63;3.27;;;;;;;-20.93;78.93;98791.19;4993805;28;20477;-74
2024/01/04 01:22:44;;;;;;;6.75;3.30;;;;;;;-20.93;78.44;98785.28;4997184;28;20700;-73
2024/01/04 01:25:11;;;;;;;10.73;3.80;;;;;;;-20.94;78.17;98784.47;4996733;28;20160;-74
2024/01/04 01:27:37;;;;;;;5.82;3.85;;;;;;;-20.93;78.20;98775.22;5016861;28;20061;-73
2024/01/04 01:30:07;;;;;;;3.83;3.40;;;;;;;-20.92;77.75;98780.25;4995088;28;20140;-73
2024/01/04 01:32:33;;;;;;;9.35;3.90;;;;;;;-20.98;78.08;98771.88;4994435;28;20385;-74
2024/01/04 01:34:59;;;;;;;5.60;3.77;;;;;;;-21.02;77.61;98772.66;4992471;28;20104;-73
2024/01/04 01:37:26;;;;;;;7.63;4.18;;;;;;;-21.03;77.85;98773.50;5009606;28;20347;-73
2024/01/04 01:39:52;;;;;;;5.78;3.60;;;;;;;-21.03;77.88;98761.72;4995683;28;20493;-72
2024/01/04 01:42:20;;;;;;;6.80;3.83;;;;;;;-21.00;77.58;98763.44;5013155;28;20073;-73
2024/01/04 01:44:47;;;;;;;5.03;3.13;;;;;;;-21.00;77.91;98766.81;5017991;28;20040;-73
2024/01/04 01:47:13;;;;;;;6.22;3.75;;;;;;;-21.04;77.97;98767.63;5016466;28;20476;-73
2024/01/04 01:49:41;;;;;;;5.18;3.58;;;;;;;-21.04;77.95;98769.28;5034414;28;20052;-73
2024/01/04 01:52:08;;;;;;;9.57;3.70;;;;;;;-21.03;78.18;98765.94;5050370;28;20052;-74
2024/01/04 01:54:35;;;;;;;7.78;3.88;;;;;;;-21.02;78.03;98763.44;5053502;28;20113;-74
2024/01/04 01:57:01;;;;;;;8.77;3.30;;;;;;;-21.01;77.86;98759.22;5053065;28;20431;-74
2024/01/04 01:59:27;;;;;;;4.63;3.63;;;;;;;-20.93;78.57;98765.13;4999491;28;20143;-74
2024/01/04 02:01:54;;;;;;;4.78;3.78;;;;;;;-21.01;78.34;98757.56;5036804;28;20639;-76
2024/01/04 02:04:19;;;;;;;6.40;3.75;;;;;;;-21.00;78.26;98758.41;5009429;28;20056;-75
2024/01/04 02:06:46;;;;;;;7.53;4.40;;;;;;;-20.90;78.59;98748.34;5070798;28;20511;-73
2024/01/04 02:09:12;;;;;;;8.98;3.92;;;;;;;-20.95;78.03;98749.19;5040392;28;20298;-74
2024/01/04 02:11:40;;;;;;;5.43;4.33;;;;;;;-20.87;77.76;98750.03;5035727;28;20056;-73
2024/01/04 02:14:07;;;;;;;5.20;3.28;;;;;;;-20.87;77.32;98758.44;5019059;28;20220;-73
2024/01/04 02:16:33;;;;;;;6.93;3.92;;;;;;;-20.97;77.21;98753.38;5019272;28;20572;-73
2024/01/04 02:18:59;;;;;;;5.47;4.33;;;;;;;-20.96;76.83;98755.91;5021849;28;20144;-73
2024/01/04 02:21:24;;;;;;;7.47;4.03;;;;;;;-21.00;76.48;98741.59;5004950;28;20063;-73
2024/01/04 02:23:51;;;;;;;7.50;4.27;;;;;;;-21.02;76.48;98749.97;4987547;28;20050;-73
2024/01/04 02:26:17;;;;;;;7.10;4.20;;;;;;;-21.04;76.69;98749.97;4997895;28;20053;-74
2024/01/04 02:28:43;;;;;;;8.35;4.50;;;;;;;-21.04;76.59;98746.59;4997321;28;20607;-74
2024/01/04 02:31:10;;;;;;;10.63;5.57;;;;;;;-21.07;76.49;98749.09;4991255;28;20090;-74
2024/01/04 02:33:36;;;;;;;5.30;4.05;;;;;;;-21.06;76.71;98753.31;4999702;28;20115;-74
2024/01/04 02:36:02;;;;;;;8.60;4.17;;;;;;;-21.07;77.55;98747.44;5032362;28;20099;-74
2024/01/04 02:38:28;;;;;;;10.77;5.23;;;;;;;-21.08;77.38;98740.72;4976837;28;20068;-74
2024/01/04 02:40:53;;;;;;;8.23;4.17;;;;;;;-21.13;77.16;98744.88;4941318;28;20440;-74
2024/01/04 02:43:19;;;;;;;8.00;4.87;;;;;;;-21.14;77.25;98747.38;4941950;28;20047;-74
2024/01/04 02:45:45;;;;;;;4.83;3.77;;;;;;;-21.11;77.47;98749.91;4973638;28;20446;-74
2024/01/04 02:48:12;;;;;;;12.53;4.57;;;;;;;-21.12;77.69;98745.72;4943948;28;20112;-74
2024/01/04 02:50:39;;;;;;;10.93;4.55;;;;;;;-21.12;78.07;98745.72;4944108;28;20050;-74
2024/01/04 02:53:05;;;;;;;4.90;3.75;;;;;;;-21.13;78.60;98741.50;4960593;28;20057;-75
2024/01/04 02:55:31;;;;;;;5.60;3.57;;;;;;;-21.09;78.39;98743.22;4961083;28;20129;-74
2024/01/04 02:57:57;;;;;;;6.33;3.70;;;;;;;-21.07;78.17;98741.53;4957851;28;20466;-75
2024/01/04 03:00:22;;;;;;;11.57;4.33;;;;;;;-21.03;78.45;98759.22;4916528;29;20070;-75
2024/01/04 03:02:49;;;;;;;9.30;5.07;;;;;;;-21.01;78.91;98751.66;4916793;29;20048;-74
2024/01/04 03:05:15;;;;;;;9.32;5.22;;;;;;;-20.99;79.27;98750.00;4933652;29;20427;-75
2024/01/04 03:07:42;;;;;;;7.33;4.80;;;;;;;-20.96;79.31;98747.50;4931718;29;20052;-75
2024/01/04 03:10:09;;;;;;;13.27;5.72;;;;;;;-20.96;78.58;98720.59;4935192;29;20063;-73
2024/01/04 03:12:37;;;;;;;10.07;5.43;;;;;;;-20.93;77.93;98712.19;4937683;28;20059;-72
2024/01/04 03:15:07;;;;;;;10.27;5.78;;;;;;;-20.91;77.67;98708.00;4938437;29;20149;-72
2024/01/04 03:17:33;;;;;;;14.85;5.00;;;;;;;-21.01;78.33;98704.59;4936757;28;20047;-72
2024/01/04 03:19:59;;;;;;;6.53;4.33;;;;;;;-21.02;78.57;98699.56;4938131;28;20494;-72
2024/01/04 03:22:25;;;;;;;6.40;4.10;;;;;;;-21.03;79.39;98703.75;4989982;28;20049;-73
2024/01/04 03:24:51;;;;;;;6.07;3.87;;;;;;;-20.98;79.60;98703.78;4989798;28;20055;-72
2024/01/04 03:27:17;;;;;;;11.03;6.03;;;;;;;-20.96;80.01;98707.16;4988903;28;20082;-73
2024/01/04 03:29:45;;;;;;;9.35;4.72;;;;;;;-20.95;79.89;98701.28;4941154;28;20141;-73
2024/01/04 03:32:11;;;;;;;6.97;3.53;;;;;;;-20.94;80.20;98692.84;4949627;28;20556;-73
2024/01/04 03:34:38;;;;;;;6.67;3.90;;;;;;;-20.91;80.31;98695.38;5028338;28;20092;-73
2024/01/04 03:37:04;;;;;;;6.72;3.95;;;;;;;-20.89;80.63;98693.72;5031612;28;20061;-73
2024/01/04 03:39:31;;;;;;;13.45;4.32;;;;;;;-20.85;81.19;98695.41;5014811;28;20421;-74
2024/01/04 03:41:57;;;;;;;10.17;4.63;;;;;;;-20.83;81.22;98676.91;5031795;28;20047;-73
2024/01/04 03:44:23;;;;;;;8.07;4.23;;;;;;;-20.82;81.59;98688.72;5096562;28;20051;-73
2024/01/04 03:46:48;;;;;;;4.67;3.73;;;;;;;-20.79;81.49;98682.81;5095733;28;20050;-73
2024/01/04 03:49:14;;;;;;;7.90;4.13;;;;;;;-20.75;81.72;98687.06;5057571;28;20079;-74
2024/01/04 03:51:40;;;;;;;6.70;3.20;;;;;;;-20.72;81.56;98684.56;5039146;28;20322;-73
2024/01/04 03:54:06;;;;;;;5.07;3.57;;;;;;;-20.72;81.57;98694.66;5040933;28;20051;-74
2024/01/04 03:56:33;;;;;;;10.00;3.67;;;;;;;-20.67;81.54;98692.97;5041433;28;20286;-74
2024/01/04 03:58:59;;;;;;;6.10;3.77;;;;;;;-20.59;81.56;98692.19;5024275;28;20040;-74
2024/01/04 04:01:26;;;;;;;6.43;4.18;;;;;;;-20.55;81.29;98695.53;5059152;28;20093;-73
2024/01/04 04:03:54;;;;;;;15.57;4.75;;;;;;;-20.53;81.01;98689.69;5043721;28;20052;-73
2024/01/04 04:06:20;;;;;;;11.00;3.92;;;;;;;-20.49;81.25;98701.44;5078500;28;20077;-73
2024/01/04 04:08:46;;;;;;;7.20;3.80;;;;;;;-20.49;81.12;98690.53;5085973;28;20036;-73
2024/01/04 04:11:17;;;;;;;8.03;4.43;;;;;;;-20.37;81.27;98690.56;5084972;28;20075;-73
2024/01/04 04:13:43;;;;;;;11.32;4.22;;;;;;;-20.43;81.25;98682.97;5102194;28;20147;-75
2024/01/04 04:16:09;;;;;;;6.78;3.70;;;;;;;-20.42;81.38;98684.66;5056508;28;20114;-74
2024/01/04 04:18:35;;;;;;;6.37;3.40;;;;;;;-20.41;82.16;98684.66;5026543;28;20053;-74
2024/01/04 04:21:01;;;;;;;6.38;3.85;;;;;;;-20.42;82.24;98693.09;5013837;28;20418;-74
2024/01/04 04:23:27;;;;;;;7.93;4.30;;;;;;;-20.41;82.48;98672.03;4996319;28;20563;-74
2024/01/04 04:25:55;;;;;;;12.15;3.35;;;;;;;-20.45;82.33;98675.41;5012409;28;20903;-74
2024/01/04 04:28:22;;;;;;;7.50;4.10;;;;;;;-20.45;82.48;98675.41;4979916;28;20049;-74
2024/01/04 04:30:48;;;;;;;5.37;3.87;;;;;;;-20.43;83.13;98661.09;5030349;28;20046;-74
2024/01/04 04:33:14;;;;;;;4.17;3.77;;;;;;;-20.41;82.90;98658.56;4995807;28;20091;-75
2024/01/04 04:35:41;;;;;;;11.73;4.30;;;;;;;-20.33;83.36;98672.91;5009201;28;20054;-74
2024/01/04 04:38:08;;;;;;;10.95;3.65;;;;;;;-20.39;83.03;98665.31;5001430;28;20060;-75
2024/01/04 04:40:34;;;;;;;4.90;3.50;;;;;;;-20.40;82.64;98670.38;4992224;28;20152;-74
2024/01/04 04:42:59;;;;;;;6.20;3.33;;;;;;;-20.30;82.80;98674.59;4975464;28;20154;-74
2024/01/04 04:45:25;;;;;;;5.30;3.73;;;;;;;-20.30;82.60;98679.63;4975987;28;20136;-73
2024/01/04 04:47:53;;;;;;;13.10;4.43;;;;;;;-20.23;82.76;98677.13;5025683;28;20541;-74
2024/01/04 04:50:19;;;;;;;6.78;3.25;;;;;;;-20.20;82.71;98686.41;5001126;28;20088;-74
2024/01/04 04:52:44;;;;;;;11.33;4.00;;;;;;;-20.18;82.33;98680.50;5016621;28;20118;-74
2024/01/04 04:55:10;;;;;;;8.63;3.70;;;;;;;-20.13;82.06;98688.09;5053734;28;20067;-74
2024/01/04 04:57:36;;;;;;;5.27;3.50;;;;;;;-20.08;82.17;98688.94;4997785;28;20049;-74
2024/01/04 05:00:02;;;;;;;7.03;3.63;;;;;;;-20.03;82.27;98689.78;4957400;28;20093;-75
2024/01/04 05:02:29;;;;;;;7.28;3.47;;;;;;;-20.05;81.79;98692.31;4935424;29;20502;-74
2024/01/04 05:04:55;;;;;;;7.23;4.07;;;;;;;-20.00;81.82;98700.72;4920536;29;20082;-74
2024/01/04 05:07:21;;;;;;;4.65;3.30;;;;;;;-20.08;81.58;98702.38;4935901;28;20415;-74
2024/01/04 05:09:48;;;;;;;3.35;3.05;;;;;;;-20.13;81.55;98694.00;4903150;29;20078;-74
2024/01/04 05:12:16;;;;;;;9.23;3.47;;;;;;;-20.01;81.82;98695.66;4950466;28;20152;-75
2024/01/04 05:14:42;;;;;;;7.13;3.28;;;;;;;-20.15;81.64;98690.63;4938697;28;20062;-73
2024/01/04 05:17:09;;;;;;;16.23;3.30;;;;;;;-20.17;81.48;98704.91;4917278;29;20417;-74
2024/01/04 05:19:35;;;;;;;6.50;3.80;;;;;;;-20.16;81.83;98699.03;4933044;29;20142;-74
2024/01/04 05:22:03;;;;;;;8.13;4.15;;;;;;;-20.06;81.55;98697.34;4901004;29;20502;-75
2024/01/04 05:24:29;;;;;;;15.20;4.68;;;;;;;-20.10;81.29;98696.50;4901868;29;20044;-75
2024/01/04 05:26:56;;;;;;;6.80;4.30;;;;;;;-20.13;81.46;98698.19;4917653;29;20066;-73
2024/01/04 05:29:25;;;;;;;8.75;4.38;;;;;;;-20.09;81.38;98705.75;4916735;29;20086;-74
2024/01/04 05:31:51;;;;;;;8.95;3.92;;;;;;;-20.09;81.55;98704.91;4981870;28;20076;-74
2024/01/04 05:34:18;;;;;;;9.75;3.65;;;;;;;-20.12;81.32;98704.88;5047529;28;20105;-73
2024/01/04 05:36:46;;;;;;;4.80;3.30;;;;;;;-20.07;81.50;98704.06;5053109;28;20056;-74
2024/01/04 05:39:12;;;;;;;8.02;3.72;;;;;;;-20.09;81.20;98704.91;5031184;28;20054;-73
2024/01/04 05:41:39;;;;;;;6.80;3.53;;;;;;;-20.08;81.03;98697.31;5016319;28;20061;-73
2024/01/04 05:44:06;;;;;;;4.90;3.20;;;;;;;-20.09;80.67;98704.91;5019174;28;20044;-75
2024/01/04 05:46:39;;;;;;;8.90;4.22;;;;;;;-20.02;80.58;98717.56;5033255;28;20411;-75
2024/01/04 05:49:07;;;;;;;2.80;2.60;;;;;;;-20.07;80.06;98725.94;5015018;28;20505;-74
2024/01/04 05:51:34;;;;;;;8.90;3.63;;;;;;;-20.11;79.45;98697.31;4989548;28;20045;-76
2024/01/04 05:54:02;;;;;;;7.50;3.92;;;;;;;-20.19;79.12;98683.03;5005056;28;20421;-76
2024/01/04 05:56:29;;;;;;;7.70;4.13;;;;;;;-20.25;78.98;98670.41;5004428;28;20432;-75
2024/01/04 05:58:58;;;;;;;5.32;3.38;;;;;;;-20.37;78.83;98672.91;5020305;28;20055;-75
2024/01/04 06:01:24;;;;;;;8.68;3.97;;;;;;;-20.47;78.53;98686.31;5033739;28;20091;-75
2024/01/04 06:03:50;;;;;;;8.37;3.67;;;;;;;-20.51;78.76;98682.09;5000842;28;20041;-75
2024/01/04 06:06:19;;;;;;;8.30;3.33;;;;;;;-20.50;78.58;98666.97;5030158;28;20056;-74
2024/01/04 06:08:44;;;;;;;6.07;3.72;;;;;;;-20.63;78.27;98656.84;4998418;28;20140;-75
2024/01/04 06:11:18;;;;;;;7.97;4.10;;;;;;;-20.77;78.14;98663.50;5016804;28;20069;-75
2024/01/04 06:13:44;;;;;;;5.85;4.22;;;;;;;-20.88;77.92;98672.69;5032523;28;20045;-75
2024/01/04 06:16:11;;;;;;;5.30;3.63;;;;;;;-20.91;78.07;98667.66;5013448;28;20057;-76
2024/01/04 06:18:38;;;;;;;4.18;3.30;;;;;;;-21.02;77.99;98670.16;5048060;28;20284;-72
2024/01/04 06:21:07;;;;;;;7.17;4.70;;;;;;;-21.09;77.92;98657.50;5034222;28;20048;-74
2024/01/04 06:23:33;;;;;;;6.55;4.30;;;;;;;-21.12;78.55;98645.72;5005607;28;20143;-73
2024/01/04 06:25:59;;;;;;;10.02;3.80;;;;;;;-21.13;78.59;98655.78;5037170;28;20065;-73
2024/01/04 06:28:27;;;;;;;9.25;4.15;;;;;;;-21.07;78.90;98665.91;5001766;28;20381;-72
2024/01/04 06:30:54;;;;;;;7.38;3.80;;;;;;;-21.13;79.28;98661.69;5018376;28;20053;-73
2024/01/04 06:33:21;;;;;;;7.15;4.22;;;;;;;-21.09;79.30;98663.38;5017471;28;20497;-74
2024/01/04 06:35:46;;;;;;;8.07;4.13;;;;;;;-21.07;79.29;98656.66;5001288;28;20132;-73
2024/01/04 06:38:13;;;;;;;6.03;3.95;;;;;;;-21.00;78.85;98660.94;5005059;28;20064;-74
2024/01/04 06:40:40;;;;;;;4.38;3.28;;;;;;;-20.88;78.85;98663.47;5074115;28;20109;-74
2024/01/04 06:43:09;;;;;;;9.95;4.60;;;;;;;-20.77;78.36;98668.56;5004398;28;20055;-74
2024/01/04 06:45:38;;;;;;;6.10;4.15;;;;;;;-20.62;78.67;98668.59;5036126;28;20135;-74
2024/01/04 06:48:08;;;;;;;6.00;4.32;;;;;;;-20.49;78.19;98676.22;5001797;28;20057;-73
2024/01/04 06:50:42;;;;;;;7.95;4.20;;;;;;;-20.34;77.98;98667.88;4989417;28;20416;-74
2024/01/04 06:53:08;;;;;;;5.65;4.28;;;;;;;-20.17;77.46;98668.75;4986373;28;20057;-74
2024/01/04 06:55:35;;;;;;;4.97;3.25;;;;;;;-19.86;77.51;98683.03;5006550;28;20554;-75
2024/01/04 06:58:04;;;;;;;3.75;3.45;;;;;;;-19.14;77.45;98677.09;5013189;28;20081;-73
2024/01/04 07:00:30;;;;;;;5.28;4.50;;;;;;;-17.87;76.96;98690.03;5034112;28;20159;-73
2024/01/04 07:02:56;;;;;;;5.27;4.27;;;;;;;-16.04;74.71;98687.31;5002288;28;20088;-67
2024/01/04 07:05:21;;;;;;;6.00;4.27;;;;;;;-14.16;70.22;98689.13;4982517;28;20294;-67
2024/01/04 07:07:47;;;;;;;9.03;4.60;;;;;;;-12.39;64.49;98687.34;4982555;28;20049;-68
2024/01/04 07:10:14;;;;;;;9.93;4.97;;;;;;;-10.93;58.29;98688.03;4986091;28;20050;-69
2024/01/04 07:12:43;;;;;;;7.93;4.50;;;;;;;-9.91;52.49;98693.81;4966179;28;20304;-69
2024/01/04 07:15:12;;;;;;;9.40;4.13;;;;;;;-10.38;46.93;98695.56;5015270;28;20299;-70
2024/01/04 07:17:39;;;;;;;9.43;4.60;;;;;;;-11.89;44.39;98702.16;5039352;28;20291;-73
2024/01/04 07:20:09;;;;;;;6.17;4.13;;;;;;;-13.16;43.45;98709.00;5059640;28;20293;-71
2024/01/04 07:22:46;;;;;;;7.57;3.90;;;;;;;-14.30;43.79;98692.81;5034743;28;20298;-70
2024/01/04 07:25:13;;;;;;;9.50;4.20;;;;;;;-14.99;44.17;98699.22;5078494;28;20269;-69
2024/01/04 07:27:44;;;;;;;13.10;5.00;;;;;;;-15.47;45.07;98689.88;5082403;28;20384;-71
2024/01/04 07:30:10;;;;;;;10.70;4.90;;;;;;;-14.65;46.17;98686.75;5080323;28;20778;-73
2024/01/04 07:32:37;;;;;;;11.07;4.10;;;;;;;-12.98;46.17;98694.06;5043097;28;20290;-72
2024/01/04 07:35:06;;;;;;;8.53;4.03;;;;;;;-12.06;45.17;98686.44;5090008;28;20350;-68
2024/01/04 07:37:31;;;;;;;6.97;3.67;;;;;;;-11.42;43.60;98691.31;5076058;28;20289;-68
2024/01/04 07:39:57;;;;;;;9.90;4.77;;;;;;;-11.79;41.75;98675.41;5059354;28;20308;-67
2024/01/04 07:42:24;;;;;;;10.43;5.73;;;;;;;-11.67;41.01;98663.97;5084686;27;20059;-73
2024/01/04 07:44:50;;;;;;;11.20;5.53;;;;;;;-10.72;41.06;98672.78;5096137;27;20127;-71
2024/01/04 07:47:19;;;;;;;12.50;6.57;;;;;;;-10.15;40.00;98664.78;5097308;27;20376;-68
2024/01/04 07:49:45;;;;;;;11.17;5.20;;;;;;;-9.56;38.72;98670.25;5028240;28;20557;-71
2024/01/04 07:52:11;;;;;;;11.47;6.03;;;;;;;-8.67;37.96;98669.19;5060734;28;20350;-69
2024/01/04 07:54:37;;;;;;;11.93;5.50;;;;;;;-7.55;36.92;98674.41;5060897;28;20282;-69
2024/01/04 07:57:03;;;;;;;9.80;5.50;;;;;;;-6.35;35.63;98677.16;5044552;28;20039;-68
2024/01/04 07:59:30;;;;;;;9.33;4.90;;;;;;;-5.70;34.10;98683.16;5027554;28;20147;-67
2024/01/04 08:01:55;;;;;;;8.60;4.80;;;;;;;-4.98;33.00;98674.91;5060976;28;20043;-71
2024/01/04 08:04:22;;;;;;;9.20;5.43;;;;;;;-3.49;31.92;98684.97;5053180;28;20464;-68
2024/01/04 08:06:50;;;;;;;9.50;5.30;;;;;;;-2.87;30.17;98689.63;5055124;28;20042;-71
2024/01/04 08:09:17;;;;;;;9.20;5.43;;;;;;;-1.77;29.03;98695.25;5069807;28;20045;-69
2024/01/04 08:11:45;;;;;;;6.77;4.67;;;;;;;-1.60;27.64;98687.13;5035769;28;20052;-69
2024/01/04 08:14:11;;;;;;;6.60;4.67;;;;;;;-1.14;27.21;98688.19;5051174;28;20555;-70
2024/01/04 08:16:37;;;;;;;9.60;5.37;;;;;;;-0.50;26.06;98686.97;5036856;28;20162;-72
2024/01/04 08:19:03;;;;;;;8.10;5.33;;;;;;;-1.64;24.86;98683.03;5051936;28;20059;-72
2024/01/04 08:21:35;;;;;;;8.40;5.20;;;;;;;-1.65;25.05;98675.34;5070179;28;20084;-72
2024/01/04 08:24:04;;;;;;;9.50;5.37;;;;;;;-2.78;24.47;98678.66;5061579;28;20071;-72
2024/01/04 08:26:30;;;;;;;9.83;5.33;;;;;;;-3.33;25.24;98677.03;5040452;28;20543;-71
2024/01/04 08:28:56;;;;;;;8.77;5.90;;;;;;;-3.81;25.40;98673.09;5024621;28;20514;-71
2024/01/04 08:31:21;;;;;;;10.47;5.03;;;;;;;-4.11;25.07;98665.44;5042884;28;20073;-70
2024/01/04 08:33:47;;;;;;;10.97;5.57;;;;;;;-2.92;25.30;98678.69;5027595;28;20173;-70
2024/01/04 08:36:14;;;;;;;10.03;5.57;;;;;;;-1.30;24.88;98677.16;5043288;28;20130;-73
2024/01/04 08:38:39;;;;;;;11.43;5.83;;;;;;;-0.12;23.52;98667.53;5039061;28;20061;-70
2024/01/04 08:41:05;;;;;;;11.13;6.07;;;;;;;-0.01;22.92;98669.31;5055214;28;20056;-72
2024/01/04 08:43:34;;;;;;;10.37;4.83;;;;;;;-0.51;22.19;98667.88;5037963;28;20049;-72
2024/01/04 08:46:00;;;;;;;8.43;4.93;;;;;;;-2.46;22.47;98674.78;5062306;28;20479;-70
2024/01/04 08:48:27;;;;;;;10.50;4.83;;;;;;;-3.72;23.38;98664.78;5080813;28;20118;-70
2024/01/04 08:50:53;;;;;;;13.17;5.00;;;;;;;-4.13;23.82;98664.66;5059727;28;20040;-71
2024/01/04 08:53:20;;;;;;;11.40;6.20;;;;;;;-3.93;24.40;98659.13;5057238;28;20333;-70
2024/01/04 08:55:50;;;;;;;9.47;6.50;;;;;;;-3.15;24.62;98653.34;5100525;28;20040;-69
2024/01/04 08:58:16;;;;;;;9.30;5.70;;;;;;;-1.52;24.00;98658.75;5063873;28;20058;-70
2024/01/04 09:00:44;;;;;;;11.20;6.20;;;;;;;0.17;22.91;98662.69;5051065;28;20507;-73
2024/01/04 09:03:10;;;;;;;10.70;5.87;;;;;;;1.59;22.03;98655.56;5038909;28;20048;-74
2024/01/04 09:05:37;;;;;;;9.53;6.30;;;;;;;2.59;20.96;98649.66;5040494;28;20066;-77
2024/01/04 09:08:09;;;;;;;10.03;6.77;;;;;;;2.95;20.33;98657.78;5030350;28;20137;-76
2024/01/04 09:10:37;;;;;;;11.83;6.93;;;;;;;3.37;19.53;98658.41;4981849;28;20057;-76
2024/01/04 09:13:04;;;;;;;12.65;6.43;;;;;;;3.87;19.46;98645.97;4997709;28;20049;-75
2024/01/04 09:15:31;;;;;;;13.13;6.70;;;;;;;4.13;18.79;98655.75;4982970;28;20485;-75
2024/01/04 09:17:57;;;;;;;8.05;5.72;;;;;;;4.12;18.49;98661.16;4991725;28;20050;-76
2024/01/04 09:20:24;;;;;;;9.57;6.57;;;;;;;3.88;18.26;98658.13;4977677;28;20088;-75
2024/01/04 09:22:50;;;;;;;8.75;6.32;;;;;;;3.95;18.40;98660.03;4978164;28;20454;-76
2024/01/04 09:25:19;;;;;;;7.93;5.68;;;;;;;3.64;17.96;98652.47;4993057;28;20227;-76
2024/01/04 09:27:47;;;;;;;8.30;6.00;;;;;;;4.15;18.00;98650.34;4961215;28;20548;-75
2024/01/04 09:30:18;;;;;;;10.43;7.15;;;;;;;5.01;17.80;98649.00;4993787;28;20512;-76
2024/01/04 09:33:17;;;;;;;9.10;5.50;;;;;;;5.54;16.85;98664.03;4998986;28;20052;-75
2024/01/04 09:35:45;;;;;;;9.63;5.90;;;;;;;5.53;17.04;98657.13;5031850;28;20079;-75
2024/01/04 09:38:19;;;;;;;8.50;5.35;;;;;;;5.81;16.65;98648.97;5039748;28;20126;-75
2024/01/04 09:40:53;;;;;;;13.25;5.82;;;;;;;5.31;16.50;98639.97;4993548;28;20052;-77
2024/01/04 09:43:20;;;;;;;9.38;5.50;;;;;;;5.42;16.68;98638.91;5033543;28;20059;-76
2024/01/04 09:45:47;;;;;;;7.90;4.72;;;;;;;5.74;16.64;98641.84;4984600;28;20123;-79
2024/01/04 09:48:16;;;;;;;8.32;5.35;;;;;;;6.34;16.31;98639.19;5000850;28;20541;-79
2024/01/04 09:50:44;;;;;;;7.88;5.70;;;;;;;6.68;16.11;98632.13;5016304;28;20469;-78
2024/01/04 09:53:12;;;;;;;7.57;4.72;;;;;;;7.23;15.83;98624.56;5034582;28;20295;-77
2024/01/04 09:55:47;;;;;;;8.88;5.35;;;;;;;7.07;15.70;98621.91;5072823;28;20048;-74
2024/01/04 09:58:26;;;;;;;7.50;5.07;;;;;;;7.20;15.65;98618.78;5077402;28;20052;-70
2024/01/04 10:00:54;;;;;;;6.75;5.13;;;;;;;7.27;15.42;98620.63;5028801;28;20052;-74
2024/01/04 10:03:25;;;;;;;7.32;5.38;;;;;;;7.45;15.02;98618.69;5056197;28;20048;-72
2024/01/04 10:05:53;;;;;;;9.57;5.55;;;;;;;7.66;14.87;98624.31;5033280;28;20080;-72
2024/01/04 10:08:34;;;;;;;10.25;5.90;;;;;;;7.75;14.82;98618.03;5016517;28;20177;-72
2024/01/04 10:11:10;;;;;;;9.57;5.25;;;;;;;8.10;14.62;98617.66;4999291;28;20085;-73
2024/01/04 10:13:36;;;;;;;8.98;5.38;;;;;;;8.13;14.28;98613.88;5024939;28;20160;-72
2024/01/04 10:16:05;;;;;;;9.27;5.85;;;;;;;8.26;14.35;98615.06;5039756;28;20056;-72
2024/01/04 10:18:35;;;;;;;8.68;5.60;;;;;;;8.46;14.52;98611.03;5053322;28;20053;-71
2024/01/04 10:21:05;;;;;;;7.15;4.72;;;;;;;8.08;14.29;98617.03;5019460;28;20043;-71
2024/01/04 10:23:32;;;;;;;8.75;5.22;;;;;;;7.92;14.27;98617.03;4992945;28;20061;-71
2024/01/04 10:26:17;;;;;;;9.70;5.07;;;;;;;8.14;14.36;98613.72;4948037;28;20135;-72
2024/01/04 10:28:46;;;;;;;9.68;5.07;;;;;;;8.06;14.16;98612.88;4960839;28;20064;-74
2024/01/04 10:31:13;;;;;;;7.50;4.43;;;;;;;8.12;14.12;98612.22;4959787;28;20054;-73
2024/01/04 10:33:42;;;;;;;8.20;4.60;;;;;;;7.91;14.08;98609.28;4962639;28;20057;-72
2024/01/04 10:36:11;;;;;;;9.00;4.68;;;;;;;8.06;13.88;98604.97;5005563;28;20595;-72
2024/01/04 10:38:37;;;;;;;8.57;4.68;;;;;;;8.09;14.10;98605.47;5019883;28;20597;-72
2024/01/04 10:41:04;;;;;;;14.35;5.07;;;;;;;8.06;13.68;98600.50;5022066;28;20052;-72
2024/01/04 10:43:31;;;;;;;9.98;5.00;;;;;;;8.10;13.99;98612.38;5023072;28;20049;-72
2024/01/04 10:46:08;;;;;;;7.40;4.25;;;;;;;8.03;14.10;98603.47;5039684;28;20202;-73
2024/01/04 10:48:35;;;;;;;9.50;4.80;;;;;;;7.89;13.86;98596.22;5007111;28;20060;-72
2024/01/04 10:51:09;;;;;;;7.93;4.38;;;;;;;7.92;13.88;98600.34;5022810;28;20048;-72
2024/01/04 10:53:37;;;;;;;8.82;5.43;;;;;;;7.47;13.83;98586.81;5044622;28;20044;-73
2024/01/04 10:56:04;;;;;;;10.23;4.60;;;;;;;7.40;14.08;98589.28;5062663;28;20130;-71
2024/01/04 10:58:33;;;;;;;9.48;4.93;;;;;;;7.19;14.07;98590.72;5062801;28;20418;-72
2024/01/04 11:01:00;;;;;;;10.30;5.18;;;;;;;6.97;14.04;98586.03;5079275;28;20051;-72
2024/01/04 11:03:33;;;;;;;14.80;5.20;;;;;;;7.00;14.23;98588.34;5062844;28;20047;-72
2024/01/04 11:05:59;;;;;;;9.68;5.43;;;;;;;6.48;14.37;98585.88;5079708;28;20078;-72
2024/01/04 11:08:26;;;;;;;7.20;4.40;;;;;;;5.77;14.42;98592.31;5066538;28;20056;-72
2024/01/04 11:10:53;;;;;;;10.82;4.70;;;;;;;5.36;14.71;98590.34;5063328;28;20050;-73
2024/01/04 11:13:19;;;;;;;10.73;4.57;;;;;;;5.08;14.95;98584.31;5097571;28;20200;-72
2024/01/04 11:15:50;;;;;;;8.93;4.95;;;;;;;5.11;14.94;98589.28;5080595;28;20141;-72
2024/01/04 11:18:19;;;;;;;;;;;;;;;4.79;14.98;98588.94;5097895;28;20051;-72
2024/01/04 11:20:50;;;;;;;13.55;4.95;;;;;;;3.85;15.16;98584.88;5058801;28;19916;-73
2024/01/04 11:23:23;;;;;;;11.75;5.47;;;;;;;2.51;15.65;98582.19;5042372;28;20048;-72
2024/01/04 11:26:27;;;;;;;11.10;5.13;;;;;;;1.34;16.51;98593.13;5025913;28;20043;-72
2024/01/04 11:28:55;;;;;;;8.90;4.90;;;;;;;-0.18;17.22;98594.94;4999004;28;20049;-72